Time;durP1;ratioP1;P1;durP2;ratioP2;P2;SDS_P1;SDS_P2;PMS_P1;PMS_P2;Temp;Humidity;BMP_temperature;BMP_pressure;BME280_temperature;BME280_humidity;BME280_pressure;Samples;Min_cycle;Max_cycle;Signal;HPM_P1;HPM_P2
2023/02/16 00:00:44;;;;;;;40.30;27.77;;;;;;;2.26;75.19;97231.91;4970457;28;20170;-68
2023/02/16 00:03:18;;;;;;;39.50;27.20;;;;;;;2.13;75.79;97228.44;4970328;28;20869;-68
2023/02/16 00:05:44;;;;;;;44.03;27.33;;;;;;;2.13;75.37;97225.84;4970394;28;20492;-69
2023/02/16 00:08:09;;;;;;;50.07;29.80;;;;;;;2.11;74.81;97222.38;4970290;28;20533;-69
2023/02/16 00:10:37;;;;;;;41.67;29.10;;;;;;;2.05;75.70;97227.53;4970446;28;20173;-69
2023/02/16 00:16:03;;;;;;;43.63;30.60;;;;;;;2.14;75.02;97218.94;4970286;28;20412;-69
2023/02/16 00:18:28;;;;;;;44.70;30.93;;;;;;;2.16;74.15;97222.41;4970387;28;20437;-69
2023/02/16 00:20:54;;;;;;;42.07;31.40;;;;;;;2.22;74.28;97235.34;4970183;28;20177;-69
2023/02/16 00:23:19;;;;;;;47.90;29.13;;;;;;;2.16;74.30;97224.97;4970022;28;20276;-69
2023/02/16 00:25:44;;;;;;;40.83;29.03;;;;;;;2.20;74.21;97225.00;4969377;28;20174;-69
2023/02/16 00:28:15;;;;;;;46.83;28.17;;;;;;;2.27;74.24;97223.28;4969706;28;20169;-69
2023/02/16 00:30:40;;;;;;;43.87;29.90;;;;;;;2.13;74.43;97215.47;4960491;28;20170;-69
2023/02/16 00:33:17;;;;;;;40.83;28.50;;;;;;;2.10;74.38;97216.34;4950519;29;20417;-69
2023/02/16 00:35:43;;;;;;;41.53;28.03;;;;;;;2.06;74.29;97222.38;4950186;29;20201;-69
2023/02/16 00:38:09;;;;;;;39.77;28.17;;;;;;;2.17;73.80;97217.19;4950179;29;20457;-69
2023/02/16 00:40:35;;;;;;;40.63;27.50;;;;;;;2.21;74.04;97213.75;4950608;29;20410;-69
2023/02/16 00:43:00;;;;;;;33.17;23.83;;;;;;;2.11;74.42;97214.63;4950252;28;20202;-69
2023/02/16 00:45:26;;;;;;;36.90;24.67;;;;;;;2.08;74.93;97222.38;4950365;29;20343;-69
2023/02/16 00:47:52;;;;;;;37.27;25.57;;;;;;;2.09;74.09;97218.91;4949978;29;20174;-69
2023/02/16 00:50:21;;;;;;;33.30;25.30;;;;;;;2.10;75.00;97210.28;4950165;29;20697;-69
2023/02/16 00:52:47;;;;;;;32.10;23.57;;;;;;;2.14;74.54;97212.03;4950304;29;20433;-69
2023/02/16 00:55:25;;;;;;;32.13;24.20;;;;;;;2.12;74.92;97211.16;4950146;29;20413;-69
2023/02/16 00:57:53;;;;;;;30.30;23.10;;;;;;;2.08;75.10;97212.88;4949773;29;20438;-69
2023/02/16 01:00:38;;;;;;;32.63;23.30;;;;;;;2.14;74.55;97204.25;4950020;29;20438;-68
2023/02/16 01:03:08;;;;;;;34.83;23.60;;;;;;;2.18;75.03;97200.81;4950064;29;20545;-68
2023/02/16 01:05:34;;;;;;;32.60;23.27;;;;;;;2.17;75.16;97204.25;4949960;29;20410;-68
2023/02/16 01:11:06;;;;;;;34.23;23.77;;;;;;;2.09;74.97;97198.22;4950123;29;20180;-68
2023/02/16 01:13:36;;;;;;;26.53;20.60;;;;;;;2.05;74.78;97196.47;4950086;28;21122;-68
2023/02/16 01:16:01;;;;;;;31.43;23.40;;;;;;;2.09;74.50;97188.72;4949766;28;20402;-68
2023/02/16 01:18:26;;;;;;;26.23;20.40;;;;;;;2.11;74.41;97199.94;4949646;29;20444;-68
2023/02/16 01:20:52;;;;;;;33.03;21.97;;;;;;;2.10;74.33;97194.75;4949721;29;20208;-68
2023/02/16 01:23:17;;;;;;;29.47;22.00;;;;;;;2.11;74.38;97191.31;4949857;29;20262;-69
2023/02/16 01:25:43;;;;;;;26.70;20.80;;;;;;;2.06;74.87;97198.22;4949501;29;20193;-68
2023/02/16 01:28:21;;;;;;;29.97;21.73;;;;;;;2.10;73.95;97211.16;4949440;29;20162;-68
2023/02/16 01:30:47;;;;;;;26.87;20.73;;;;;;;2.02;74.46;97220.63;4959812;28;20714;-68
2023/02/16 01:33:12;;;;;;;27.20;20.80;;;;;;;2.16;73.85;97238.78;4968753;28;20412;-68
2023/02/16 01:35:38;;;;;;;27.53;20.90;;;;;;;1.85;75.33;97230.94;4968809;28;20779;-68
2023/02/16 01:38:03;;;;;;;28.73;21.07;;;;;;;2.10;74.77;97220.63;4968152;28;20669;-68
2023/02/16 01:40:32;;;;;;;29.20;19.37;;;;;;;2.14;73.85;97227.56;4969177;28;20340;-69
2023/02/16 01:43:17;;;;;;;29.47;18.83;;;;;;;2.26;73.85;97231.91;4968907;28;20292;-68
2023/02/16 01:45:48;;;;;;;29.90;20.23;;;;;;;2.18;73.73;97213.75;4968768;28;20489;-70
2023/02/16 01:48:25;;;;;;;26.07;18.60;;;;;;;1.86;74.32;97201.59;4968143;28;20408;-69
2023/02/16 01:50:53;;;;;;;32.33;21.10;;;;;;;1.57;74.77;97210.97;4968587;28;20421;-69
2023/02/16 01:53:29;;;;;;;23.67;19.07;;;;;;;1.82;75.20;97205.03;4968615;28;20532;-69
2023/02/16 01:56:02;;;;;;;25.93;20.30;;;;;;;1.95;74.18;97212.84;4968265;28;20791;-69
2023/02/16 01:59:00;;;;;;;26.13;19.43;;;;;;;1.94;74.06;97200.75;4968568;28;20433;-69
2023/02/16 02:01:45;;;;;;;23.67;19.50;;;;;;;1.96;73.96;97204.19;4971512;28;20445;-68
2023/02/16 02:07:21;;;;;;;23.73;19.27;;;;;;;2.02;74.25;97194.72;4968411;28;20467;-68
2023/02/16 02:09:56;;;;;;;26.63;19.60;;;;;;;1.96;74.03;97192.16;4968293;28;20424;-67
2023/02/16 02:12:39;;;;;;;23.90;18.37;;;;;;;1.92;73.99;97192.13;4968355;28;20407;-68
2023/02/16 02:15:05;;;;;;;25.90;19.00;;;;;;;2.02;73.23;97186.09;4968466;28;20782;-68
2023/02/16 02:17:31;;;;;;;24.87;19.80;;;;;;;1.91;73.91;97186.06;4968016;28;20964;-68
2023/02/16 02:20:19;;;;;;;27.00;19.27;;;;;;;2.03;73.74;97173.19;4968206;28;20459;-68
2023/02/16 02:26:21;;;;;;;23.47;17.37;;;;;;;1.90;74.03;97177.44;4968026;28;20444;-68
2023/02/16 02:29:25;;;;;;;26.83;18.87;;;;;;;1.91;73.58;97180.88;4968164;28;20424;-68
2023/02/16 02:32:12;;;;;;;22.57;17.60;;;;;;;1.97;73.83;97175.75;4955431;28;20441;-68
2023/02/16 02:34:46;;;;;;;23.70;18.83;;;;;;;2.02;73.29;97173.16;4948813;28;20951;-68
2023/02/16 02:37:33;;;;;;;29.63;19.20;;;;;;;1.90;73.63;97169.69;4948051;29;20422;-69
2023/02/16 02:40:11;;;;;;;29.30;19.50;;;;;;;1.92;73.80;97169.69;4948543;29;20839;-68
2023/02/16 02:43:13;;;;;;;27.60;19.67;;;;;;;1.90;73.50;97172.28;4948798;28;20459;-68
2023/02/16 02:46:02;;;;;;;24.50;19.13;;;;;;;2.02;73.01;97176.59;4948596;28;20530;-69
2023/02/16 02:48:32;;;;;;;30.00;20.90;;;;;;;2.12;72.71;97165.41;4948520;28;20787;-68
2023/02/16 03:03:19;;;;;;;29.50;20.30;;;;;;;2.01;72.81;97161.06;4952164;29;20485;-68
2023/02/16 03:05:50;;;;;;;28.50;20.40;;;;;;;1.94;73.14;97160.22;4951986;29;20465;-68
2023/02/16 03:08:20;;;;;;;23.73;18.40;;;;;;;1.94;73.00;97157.63;4952024;29;20406;-68
2023/02/16 03:14:24;;;;;;;29.47;21.17;;;;;;;1.98;72.94;97164.50;4952221;29;20562;-68
2023/02/16 03:30:41;;;;;;;33.37;21.93;;;;;;;1.95;72.95;97166.25;4961029;28;20420;-69
2023/02/16 03:33:06;;;;;;;29.10;20.57;;;;;;;1.96;72.71;97165.38;4970977;28;20933;-68
2023/02/16 03:35:34;;;;;;;23.80;17.40;;;;;;;2.04;72.56;97168.88;4970862;28;20406;-69
2023/02/16 03:37:59;;;;;;;28.80;20.47;;;;;;;1.86;72.98;97162.75;4970627;28;20240;-69
2023/02/16 03:40:27;;;;;;;28.00;20.50;;;;;;;1.89;72.96;97164.50;4970880;28;20434;-69
2023/02/16 03:42:54;;;;;;;29.90;21.27;;;;;;;1.92;72.94;97164.53;4970767;28;20197;-69
2023/02/16 03:45:21;;;;;;;28.67;21.60;;;;;;;1.85;72.57;97165.38;4970750;28;20922;-69
2023/02/16 03:47:46;;;;;;;32.90;20.97;;;;;;;1.94;72.45;97164.50;4970276;28;20428;-69
2023/02/16 03:50:12;;;;;;;31.73;19.77;;;;;;;1.85;72.28;97155.00;4970251;28;20425;-69
2023/02/16 03:52:38;;;;;;;26.83;18.80;;;;;;;1.85;72.43;97162.78;4970628;28;20173;-69
2023/02/16 03:55:03;;;;;;;25.10;20.00;;;;;;;1.90;72.01;97167.09;4970625;28;20661;-69
2023/02/16 03:57:29;;;;;;;24.27;18.20;;;;;;;1.81;72.18;97163.63;4970340;28;20170;-68
2023/02/16 03:59:54;;;;;;;24.17;20.97;;;;;;;1.80;72.33;97157.59;4970339;28;20279;-69
2023/02/16 04:02:20;;;;;;;24.40;18.47;;;;;;;1.77;72.39;97165.34;4969853;28;20232;-68
2023/02/16 04:04:46;;;;;;;25.40;18.33;;;;;;;1.85;72.19;97165.38;4970595;28;20182;-69
2023/02/16 04:07:12;;;;;;;25.93;18.63;;;;;;;1.76;71.91;97166.19;4969963;28;20841;-69
2023/02/16 04:09:37;;;;;;;22.73;17.97;;;;;;;1.90;71.80;97174.84;4970344;28;20433;-69
2023/02/16 04:14:47;;;;;;;23.90;18.77;;;;;;;1.78;72.31;97180.00;4970572;28;20180;-68
2023/02/16 04:17:13;;;;;;;21.70;17.33;;;;;;;1.86;72.65;97174.84;4969915;28;20409;-68
2023/02/16 04:19:38;;;;;;;23.47;18.70;;;;;;;1.79;72.19;97181.72;4970366;28;20186;-68
2023/02/16 04:22:03;;;;;;;29.43;20.03;;;;;;;1.88;72.31;97183.47;4970217;28;20244;-69
2023/02/16 04:24:29;;;;;;;27.13;18.23;;;;;;;1.97;71.20;97182.66;4970528;28;20177;-69
2023/02/16 04:26:54;;;;;;;26.30;18.43;;;;;;;1.81;72.06;97187.78;4970099;28;20548;-68
2023/02/16 04:29:20;;;;;;;23.70;17.60;;;;;;;1.82;71.61;97184.34;4970270;28;20259;-68
2023/02/16 04:31:45;;;;;;;25.40;18.80;;;;;;;1.81;71.87;97187.78;4951882;28;20237;-69
2023/02/16 04:34:11;;;;;;;22.93;19.20;;;;;;;1.82;72.37;97191.22;4951159;29;20857;-69
2023/02/16 04:36:36;;;;;;;28.17;17.50;;;;;;;1.80;71.82;97196.41;4948931;29;20268;-69
2023/02/16 04:39:02;;;;;;;23.60;19.80;;;;;;;1.87;71.71;97192.13;4950651;29;20214;-69
2023/02/16 04:41:27;;;;;;;20.90;18.17;;;;;;;1.86;72.09;97196.41;4950610;28;20175;-68
2023/02/16 04:43:52;;;;;;;24.37;18.47;;;;;;;1.84;72.42;97194.69;4950466;29;20202;-68
2023/02/16 04:46:18;;;;;;;23.60;18.53;;;;;;;1.87;72.13;97192.13;4948878;29;20170;-68
2023/02/16 04:48:44;;;;;;;21.57;17.87;;;;;;;1.91;72.01;97199.00;4950000;28;20187;-69
2023/02/16 04:51:09;;;;;;;22.87;18.50;;;;;;;1.88;71.90;97193.84;4950376;29;20241;-68
2023/02/16 04:53:35;;;;;;;26.67;18.57;;;;;;;2.01;71.79;97189.53;4950226;29;20422;-69
2023/02/16 04:56:00;;;;;;;23.70;17.77;;;;;;;1.85;71.86;97199.00;4950219;29;20186;-69
2023/02/16 04:58:26;;;;;;;26.30;19.30;;;;;;;1.82;71.94;97194.69;4950269;29;20697;-68
2023/02/16 05:00:51;;;;;;;28.97;19.80;;;;;;;1.84;72.00;97197.25;4950291;29;20303;-68
2023/02/16 05:03:16;;;;;;;29.27;19.03;;;;;;;1.80;72.11;97195.53;4949999;29;20292;-68
2023/02/16 05:05:42;;;;;;;30.80;20.30;;;;;;;1.80;71.97;97193.81;4949941;29;20166;-68
2023/02/16 05:08:07;;;;;;;24.80;17.03;;;;;;;1.79;71.89;97194.66;4949843;29;20177;-68
2023/02/16 05:10:33;;;;;;;25.37;19.70;;;;;;;1.86;71.42;97200.72;4950003;29;20500;-69
2023/02/16 05:15:43;;;;;;;27.63;17.53;;;;;;;1.82;72.39;97212.81;4953162;28;20550;-68
2023/02/16 05:18:09;;;;;;;28.40;20.97;;;;;;;1.81;72.39;97205.88;4965939;28;20953;-68
2023/02/16 05:23:18;;;;;;;26.33;19.80;;;;;;;1.84;72.38;97200.75;4964878;28;20240;-68
2023/02/16 05:25:43;;;;;;;27.17;20.20;;;;;;;1.77;72.01;97200.69;4966807;28;21072;-69
2023/02/16 05:28:09;;;;;;;32.77;23.13;;;;;;;1.78;72.10;97207.63;4965024;28;20178;-69
2023/02/16 05:30:34;;;;;;;34.40;20.97;;;;;;;1.90;71.90;97205.06;4965603;28;20196;-69
2023/02/16 05:32:59;;;;;;;38.00;21.40;;;;;;;1.83;72.04;97204.16;4966438;28;20599;-68
2023/02/16 05:35:25;;;;;;;29.70;22.10;;;;;;;1.90;72.09;97205.91;4967416;28;20239;-69
2023/02/16 05:37:50;;;;;;;29.80;23.53;;;;;;;1.96;72.03;97202.50;4966600;28;20212;-69
2023/02/16 05:40:16;;;;;;;29.23;21.00;;;;;;;1.95;71.93;97215.44;4964477;28;21012;-69
2023/02/16 05:42:41;;;;;;;31.63;21.43;;;;;;;1.86;72.46;97203.31;4966474;28;20237;-69
2023/02/16 05:45:07;;;;;;;41.27;23.30;;;;;;;1.89;72.55;97213.66;4961589;28;20260;-70
2023/02/16 05:47:32;;;;;;;31.27;23.37;;;;;;;1.97;72.15;97204.22;4964510;28;20236;-68
2023/02/16 05:49:58;;;;;;;31.67;22.80;;;;;;;1.90;72.29;97220.59;4965690;28;20208;-69
2023/02/16 05:52:23;;;;;;;34.60;22.13;;;;;;;2.04;72.24;97220.63;4965799;28;20293;-68
2023/02/16 05:54:48;;;;;;;32.47;22.57;;;;;;;2.09;72.04;97211.16;4966597;28;20197;-68
2023/02/16 05:57:14;;;;;;;35.07;22.97;;;;;;;2.08;71.69;97218.06;4964856;28;20178;-68
2023/02/16 05:59:39;;;;;;;37.10;23.37;;;;;;;2.01;72.47;97221.50;4965909;28;20316;-69
2023/02/16 06:02:05;;;;;;;30.97;20.60;;;;;;;2.00;73.02;97222.34;4965918;28;20273;-69
2023/02/16 06:04:31;;;;;;;34.33;23.33;;;;;;;2.01;72.89;97226.66;4965436;28;20229;-69
2023/02/16 06:06:57;;;;;;;39.93;24.07;;;;;;;2.07;72.60;97218.91;4980133;28;20208;-68
2023/02/16 06:09:22;;;;;;;62.43;26.73;;;;;;;2.10;72.80;97228.41;4966178;28;20460;-68
2023/02/16 06:11:48;;;;;;;38.00;23.80;;;;;;;2.12;72.12;97234.44;4967455;28;20178;-68
2023/02/16 06:14:17;;;;;;;41.33;24.07;;;;;;;2.16;72.16;97235.34;4965259;28;20582;-68
2023/02/16 06:16:44;;;;;;;41.33;24.60;;;;;;;2.20;72.11;97234.50;4959359;28;20642;-69
2023/02/16 06:19:11;;;;;;;42.40;25.97;;;;;;;2.26;72.13;97252.63;4965230;28;20484;-68
2023/02/16 06:21:37;;;;;;;43.47;24.43;;;;;;;2.24;72.13;97239.66;4966830;28;20450;-69
2023/02/16 06:24:04;;;;;;;35.80;22.83;;;;;;;2.29;71.96;97250.91;4969255;28;20465;-68
2023/02/16 06:26:30;;;;;;;37.63;24.53;;;;;;;2.31;71.55;97233.63;4971648;28;20457;-69
2023/02/16 06:28:55;;;;;;;32.20;22.60;;;;;;;2.18;72.08;97244.84;4971049;28;20484;-68
2023/02/16 06:31:22;;;;;;;34.20;23.47;;;;;;;2.21;72.40;97238.81;4971108;28;20188;-68
2023/02/16 06:33:48;;;;;;;41.23;24.23;;;;;;;2.27;71.86;97244.88;4969893;28;20177;-68
2023/02/16 06:36:13;;;;;;;38.13;26.23;;;;;;;2.24;72.16;97247.41;4969192;28;20914;-69
2023/02/16 06:38:39;;;;;;;45.33;25.50;;;;;;;2.32;71.82;97242.28;4968195;28;20212;-70
2023/02/16 06:41:05;;;;;;;33.73;25.10;;;;;;;2.48;71.39;97250.94;4968461;28;20182;-69
2023/02/16 06:43:30;;;;;;;36.40;24.87;;;;;;;2.57;71.16;97250.09;4968443;28;20212;-68
2023/02/16 06:45:56;;;;;;;45.00;24.87;;;;;;;2.69;70.25;97245.78;4967742;28;20217;-67
2023/02/16 06:48:21;;;;;;;31.87;22.17;;;;;;;2.68;70.59;97250.97;4966525;28;20193;-69
2023/02/16 06:50:47;;;;;;;46.83;24.47;;;;;;;2.65;70.45;97251.84;4969120;28;20177;-69
2023/02/16 06:53:12;;;;;;;40.53;25.33;;;;;;;2.65;70.55;97259.59;4968304;28;20181;-70
2023/02/16 06:55:37;;;;;;;41.47;24.13;;;;;;;2.65;70.37;97264.78;4968127;28;20197;-68
2023/02/16 06:58:03;;;;;;;45.00;24.07;;;;;;;2.72;70.61;97263.94;4969386;28;20558;-68
2023/02/16 07:00:29;;;;;;;42.23;26.37;;;;;;;2.74;70.40;97264.81;4969092;28;20303;-70
2023/02/16 07:02:55;;;;;;;44.80;24.73;;;;;;;2.89;69.64;97252.72;4967997;28;20387;-68
2023/02/16 07:05:20;;;;;;;44.03;24.73;;;;;;;3.29;68.30;97255.28;4966651;28;20201;-68
2023/02/16 07:07:46;;;;;;;37.50;22.03;;;;;;;3.82;66.35;97262.91;4969511;28;20544;-69
2023/02/16 07:10:11;;;;;;;37.07;23.20;;;;;;;4.05;65.35;97256.78;4965616;28;20284;-69
2023/02/16 07:12:37;;;;;;;30.87;21.80;;;;;;;4.13;64.49;97262.78;4969068;28;20235;-73
2023/02/16 07:15:03;;;;;;;31.17;22.80;;;;;;;4.13;64.48;97259.31;4966390;28;20189;-69
2023/02/16 07:17:28;;;;;;;36.73;21.80;;;;;;;4.03;64.72;97274.09;4969296;28;20264;-69
2023/02/16 07:19:54;;;;;;;32.93;22.40;;;;;;;3.96;64.96;97269.78;4962733;28;20491;-68
2023/02/16 07:22:19;;;;;;;34.80;23.47;;;;;;;3.99;65.40;97265.47;4968935;28;20276;-70
2023/02/16 07:24:45;;;;;;;32.83;23.17;;;;;;;3.97;65.37;97275.00;4968424;28;20197;-68
2023/02/16 07:27:10;;;;;;;31.03;23.53;;;;;;;4.08;64.84;97269.75;4967370;28;20203;-69
2023/02/16 07:29:36;;;;;;;31.90;22.67;;;;;;;4.24;64.38;97267.94;4967858;28;20299;-67
2023/02/16 07:32:02;;;;;;;31.67;23.20;;;;;;;4.24;64.16;97275.75;4968185;28;20181;-68
2023/02/16 07:34:28;;;;;;;34.10;22.63;;;;;;;4.31;63.90;97280.03;4968902;28;20221;-67
2023/02/16 07:36:53;;;;;;;49.53;26.47;;;;;;;4.28;63.78;97274.84;4953446;28;20461;-70
2023/02/16 07:39:18;;;;;;;44.37;23.97;;;;;;;4.44;63.76;97265.22;4988423;28;20621;-69
2023/02/16 07:41:44;;;;;;;56.80;25.80;;;;;;;4.41;63.91;97276.50;4988249;28;20515;-68
2023/02/16 07:44:09;;;;;;;76.57;27.30;;;;;;;4.43;63.42;97268.72;4988646;28;20264;-68
2023/02/16 07:46:35;;;;;;;87.70;27.73;;;;;;;6.00;61.08;97272.56;4987948;28;20181;-68
2023/02/16 07:49:00;;;;;;;66.87;26.10;;;;;;;6.46;57.95;97265.03;4987891;28;20204;-69
2023/02/16 07:51:29;;;;;;;38.80;23.93;;;;;;;7.57;54.42;97264.13;4970524;28;20252;-68
2023/02/16 07:53:55;;;;;;;40.73;24.30;;;;;;;8.72;50.46;97266.22;4970711;28;20177;-68
2023/02/16 07:56:27;;;;;;;29.40;23.60;;;;;;;9.52;48.21;97259.03;4970405;28;20812;-68
2023/02/16 07:58:53;;;;;;;31.47;24.80;;;;;;;9.70;46.81;97263.78;4971065;28;20484;-68
2023/02/16 08:01:20;;;;;;;38.33;24.80;;;;;;;10.34;45.60;97258.53;4970651;28;20825;-68
2023/02/16 08:03:45;;;;;;;31.17;25.27;;;;;;;10.85;43.92;97264.03;4970543;28;20559;-68
2023/02/16 08:06:11;;;;;;;49.30;28.70;;;;;;;10.77;44.38;97253.75;4970360;28;20502;-69
2023/02/16 08:08:37;;;;;;;31.40;25.27;;;;;;;11.37;43.02;97247.44;4970728;28;20225;-69
2023/02/16 08:11:15;;;;;;;31.40;24.40;;;;;;;11.89;42.05;97250.09;4970371;28;20637;-68
2023/02/16 08:13:41;;;;;;;32.53;27.73;;;;;;;12.59;40.58;97246.63;4969597;28;20429;-68
2023/02/16 08:16:11;;;;;;;32.00;26.87;;;;;;;12.68;39.49;97250.66;4969237;28;20436;-69
2023/02/16 08:18:38;;;;;;;31.50;26.83;;;;;;;12.17;40.08;97249.09;4969477;28;20465;-68
2023/02/16 08:21:18;;;;;;;30.50;26.90;;;;;;;10.66;44.25;97258.50;4967875;28;20436;-68
2023/02/16 08:23:52;;;;;;;38.40;28.40;;;;;;;10.70;45.08;97258.38;4967894;28;20567;-67
2023/02/16 08:26:19;;;;;;;36.70;26.93;;;;;;;11.13;43.72;97261.41;4961251;28;20428;-68
2023/02/16 08:28:48;;;;;;;34.67;29.67;;;;;;;12.10;41.77;97247.63;4969382;28;20434;-67
2023/02/16 08:31:28;;;;;;;30.73;27.00;;;;;;;12.75;40.09;97260.03;4968936;28;20739;-68
2023/02/16 08:33:55;;;;;;;36.13;27.50;;;;;;;13.51;38.58;97248.25;4969134;28;20413;-67
2023/02/16 08:36:31;;;;;;;34.00;26.67;;;;;;;13.08;39.27;97252.59;4968398;28;20463;-68
2023/02/16 08:38:56;;;;;;;35.60;27.57;;;;;;;13.36;38.70;97250.66;4969172;28;20483;-68
2023/02/16 08:41:27;;;;;;;33.70;25.80;;;;;;;13.10;39.50;97258.66;4969437;28;20456;-69
2023/02/16 08:43:53;;;;;;;30.63;25.70;;;;;;;13.28;39.24;97254.47;4951422;28;20230;-70
2023/02/16 08:46:20;;;;;;;32.17;27.20;;;;;;;12.93;39.92;97255.84;4948200;28;20428;-70
2023/02/16 08:48:46;;;;;;;43.47;26.30;;;;;;;12.66;40.18;97255.13;4949272;29;20812;-69
2023/02/16 08:51:16;;;;;;;34.63;25.93;;;;;;;12.44;41.10;97250.69;4949673;29;20420;-69
2023/02/16 08:53:42;;;;;;;32.47;27.40;;;;;;;12.44;41.08;97250.69;4949820;28;21040;-69
2023/02/16 08:56:09;;;;;;;37.27;28.07;;;;;;;12.63;41.15;97250.84;4948587;28;20875;-71
2023/02/16 08:58:38;;;;;;;36.33;26.90;;;;;;;12.39;42.48;97254.41;4949716;29;20520;-70
2023/02/16 09:01:07;;;;;;;45.67;28.73;;;;;;;12.43;41.74;97256.88;4949407;29;20449;-70
2023/02/16 09:03:37;;;;;;;35.53;28.40;;;;;;;12.25;42.51;97257.56;4949093;29;20524;-69
2023/02/16 09:06:05;;;;;;;40.53;27.97;;;;;;;12.44;42.24;97252.47;4948227;29;20417;-69
2023/02/16 09:08:36;;;;;;;82.80;34.50;;;;;;;12.18;42.57;97258.69;4950029;29;20448;-69
2023/02/16 09:11:08;;;;;;;43.40;28.77;;;;;;;12.43;42.00;97262.16;4949819;29;20903;-69
2023/02/16 09:13:34;;;;;;;42.57;26.70;;;;;;;12.74;41.51;97246.97;4949425;29;20417;-71
2023/02/16 09:16:04;;;;;;;51.57;28.27;;;;;;;12.81;41.54;97257.19;4948168;28;20433;-69
2023/02/16 09:18:31;;;;;;;36.30;25.17;;;;;;;12.90;42.24;97248.94;4949224;29;20446;-69
2023/02/16 09:21:01;;;;;;;40.43;26.87;;;;;;;12.90;41.87;97250.72;4947552;29;20428;-69
2023/02/16 09:23:27;;;;;;;40.47;28.30;;;;;;;12.86;41.50;97249.97;4948960;29;20500;-68
2023/02/16 09:25:52;;;;;;;36.77;27.90;;;;;;;12.83;41.54;97257.13;4963616;28;20445;-69
2023/02/16 09:28:19;;;;;;;37.60;26.70;;;;;;;12.75;41.98;97261.84;4967764;28;20189;-70
2023/02/16 09:30:45;;;;;;;45.50;28.17;;;;;;;12.75;41.93;97259.19;4966562;28;20641;-69
2023/02/16 09:33:10;;;;;;;34.97;25.50;;;;;;;13.09;41.02;97270.13;4966686;28;20488;-70
2023/02/16 09:35:38;;;;;;;33.23;26.67;;;;;;;12.91;41.32;97273.50;4959853;28;20619;-70
2023/02/16 09:38:04;;;;;;;33.87;27.40;;;;;;;13.07;41.48;97265.84;4966507;28;20521;-71
2023/02/16 09:40:29;;;;;;;32.00;25.50;;;;;;;13.04;41.33;97261.56;4964827;28;20453;-69
2023/02/16 09:43:16;;;;;;;33.53;26.33;;;;;;;13.12;41.28;97263.88;4954582;28;20289;-69
2023/02/16 09:45:46;;;;;;;30.23;24.17;;;;;;;13.28;41.20;97258.88;4958821;28;20182;-68
2023/02/16 09:48:36;;;;;;;33.50;27.27;;;;;;;13.18;40.94;97266.28;4966892;28;20409;-70
2023/02/16 09:51:06;;;;;;;31.20;25.30;;;;;;;13.25;41.37;97266.84;4962346;28;20440;-69
2023/02/16 09:53:40;;;;;;;31.70;27.07;;;;;;;13.31;41.41;97270.16;4968207;28;20780;-70
2023/02/16 09:56:31;;;;;;;33.87;25.97;;;;;;;13.15;41.17;97269.00;4963739;28;20435;-69
2023/02/16 09:59:10;;;;;;;36.40;24.87;;;;;;;13.07;41.44;97264.06;4965675;28;20523;-69
2023/02/16 10:01:43;;;;;;;32.70;26.83;;;;;;;13.36;41.24;97259.41;4966891;28;21210;-69
2023/02/16 10:04:12;;;;;;;32.03;25.43;;;;;;;13.29;41.67;97258.81;4982215;28;20213;-68
2023/02/16 10:07:05;;;;;;;32.40;24.97;;;;;;;13.26;41.13;97261.53;4967100;28;20416;-69
2023/02/16 10:09:32;;;;;;;30.30;25.30;;;;;;;13.44;40.82;97245.91;4968011;28;20531;-69
2023/02/16 10:12:06;;;;;;;30.30;25.13;;;;;;;13.11;41.54;97252.50;4967407;28;20812;-69
2023/02/16 10:14:35;;;;;;;30.30;24.83;;;;;;;13.01;41.87;97251.13;4967643;28;21287;-69
2023/02/16 10:17:14;;;;;;;29.00;24.83;;;;;;;13.18;41.73;97257.50;4950774;28;20415;-68
2023/02/16 10:20:05;;;;;;;30.67;24.87;;;;;;;13.29;42.02;97253.53;4948325;29;20630;-70
2023/02/16 10:22:47;;;;;;;27.63;21.90;;;;;;;13.42;42.05;97245.13;4948199;29;20501;-67
2023/02/16 10:25:15;;;;;;;33.50;24.43;;;;;;;13.32;42.10;97242.88;4948377;29;20508;-69
2023/02/16 10:27:44;;;;;;;34.73;25.93;;;;;;;13.34;41.38;97245.44;4947107;29;20434;-68
2023/02/16 10:30:17;;;;;;;35.97;27.80;;;;;;;13.33;41.91;97244.59;4952711;28;20555;-70
2023/02/16 10:32:56;;;;;;;36.30;26.60;;;;;;;13.22;41.96;97245.91;4967984;28;20413;-70
2023/02/16 10:35:36;;;;;;;34.50;26.10;;;;;;;13.13;42.01;97236.59;4967674;28;20413;-68
2023/02/16 10:38:08;;;;;;;36.57;25.40;;;;;;;13.16;42.60;97236.50;4966452;28;20997;-70
2023/02/16 10:40:53;;;;;;;38.47;25.90;;;;;;;13.19;41.88;97246.91;4967568;28;20413;-69
2023/02/16 10:43:22;;;;;;;37.87;25.20;;;;;;;13.08;42.49;97235.94;4967695;28;20471;-70
2023/02/16 10:45:53;;;;;;;31.67;24.00;;;;;;;13.15;42.93;97245.28;4966791;28;20500;-69
2023/02/16 10:48:22;;;;;;;28.80;24.33;;;;;;;13.20;42.97;97240.69;4967437;28;20416;-68
2023/02/16 10:51:06;;;;;;;37.13;25.27;;;;;;;13.20;42.43;97240.69;4966019;28;20531;-68
2023/02/16 10:53:45;;;;;;;35.60;23.23;;;;;;;13.24;42.50;97234.38;4983814;28;20418;-70
2023/02/16 10:56:39;;;;;;;36.70;24.83;;;;;;;13.23;42.12;97231.78;4986220;28;20832;-71
2023/02/16 10:59:11;;;;;;;37.03;24.17;;;;;;;13.37;42.40;97228.63;4986540;28;20428;-69
2023/02/16 11:01:42;;;;;;;29.73;23.60;;;;;;;13.39;42.53;97227.63;4986853;28;20412;-70
2023/02/16 11:04:09;;;;;;;32.37;23.80;;;;;;;13.48;42.04;97231.69;4986286;28;21066;-68
2023/02/16 11:06:34;;;;;;;32.17;22.67;;;;;;;13.48;42.49;97226.41;4985638;28;20440;-69
2023/02/16 11:09:03;;;;;;;27.77;22.27;;;;;;;13.57;42.39;97218.09;4986279;28;20546;-70
2023/02/16 11:11:35;;;;;;;26.50;21.80;;;;;;;13.59;42.02;97212.78;4989341;28;20581;-68
2023/02/16 11:14:19;;;;;;;28.57;23.70;;;;;;;13.64;42.03;97216.91;4977848;28;20492;-70
2023/02/16 11:16:46;;;;;;;27.47;22.40;;;;;;;13.71;41.37;97206.97;4970028;28;21060;-69
2023/02/16 11:19:21;;;;;;;34.03;24.83;;;;;;;13.67;41.97;97200.94;4970505;28;20440;-68
2023/02/16 11:21:51;;;;;;;25.67;21.50;;;;;;;13.71;41.86;97202.53;4970356;28;20884;-69
2023/02/16 11:24:43;;;;;;;25.57;21.40;;;;;;;13.86;41.66;97197.50;4970499;28;20461;-69
2023/02/16 11:27:20;;;;;;;28.75;22.10;;;;;;;14.08;40.60;97193.00;4968638;28;20452;-69
2023/02/16 11:29:46;;;;;;;29.60;22.37;;;;;;;14.10;40.79;97187.63;4970403;28;20193;-69
2023/02/16 11:32:14;;;;;;;35.03;20.27;;;;;;;13.93;40.99;97191.88;4970826;28;20499;-71
2023/02/16 11:34:41;;;;;;;51.57;21.83;;;;;;;14.02;40.82;97188.00;4970146;28;20217;-68
2023/02/16 11:37:25;;;;;;;44.33;21.43;;;;;;;13.95;40.35;97179.47;4969476;28;20926;-67
2023/02/16 11:39:53;;;;;;;35.17;20.53;;;;;;;13.97;40.47;97176.78;4970926;28;20425;-69
2023/02/16 11:42:39;;;;;;;35.47;20.17;;;;;;;14.05;40.05;97176.44;4974733;28;20404;-69
2023/02/16 11:45:07;;;;;;;64.23;24.50;;;;;;;13.91;41.08;97174.41;4984378;28;20851;-70
2023/02/16 11:47:41;;;;;;;52.70;25.40;;;;;;;14.11;40.67;97173.53;4988807;28;20416;-69
2023/02/16 11:50:34;;;;;;;77.00;26.00;;;;;;;14.23;40.15;97169.47;4969942;28;20902;-70
2023/02/16 11:53:08;;;;;;;48.27;21.30;;;;;;;14.16;39.63;97164.47;4957551;28;20528;-70
2023/02/16 11:55:36;;;;;;;44.07;18.87;;;;;;;14.29;38.93;97161.25;4950416;28;20815;-69
2023/02/16 11:58:24;;;;;;;65.10;21.30;;;;;;;14.23;39.05;97158.91;4955502;28;20428;-70
2023/02/16 12:01:17;;;;;;;90.30;24.70;;;;;;;14.16;38.77;97156.53;4961012;28;20520;-67
2023/02/16 12:03:49;;;;;;;47.67;19.10;;;;;;;13.91;39.78;97150.66;4961742;28;20461;-72
2023/02/16 12:06:29;;;;;;;34.00;18.63;;;;;;;13.86;39.38;97147.38;4967983;28;20506;-70
2023/02/16 12:09:20;;;;;;;34.10;18.03;;;;;;;13.81;39.42;97142.31;4963259;28;20444;-70
2023/02/16 12:12:23;;;;;;;39.00;18.97;;;;;;;13.93;39.99;97144.38;4969233;28;20774;-71
2023/02/16 12:14:57;;;;;;;24.07;16.70;;;;;;;13.92;39.29;97142.69;4968389;28;20428;-73
2023/02/16 12:17:57;;;;;;;35.13;16.17;;;;;;;14.09;39.45;97131.34;4966289;28;20450;-70
2023/02/16 12:20:48;;;;;;;46.77;18.97;;;;;;;14.21;38.61;97127.28;4968595;28;20433;-70
2023/02/16 12:23:35;;;;;;;88.87;22.03;;;;;;;14.21;38.56;97121.16;4968380;28;20464;-68
2023/02/16 12:26:10;;;;;;;35.40;16.77;;;;;;;14.29;38.67;97119.00;4968326;28;20859;-71